Impacts METAR Board
IDs:

KORD - Chicago/O'Hare Intl, IL, US

Updated at: 2100 UTC 20 Oct 2018
Potential Impact None Slight Moderate High
Time 20/09Z 20/10Z 20/11Z 20/12Z 20/13Z 20/14Z 20/15Z 20/16Z 20/17Z 20/18Z 20/19Z 20/20Z 20/21Z
Temp48 47 46 45 46 48 51 50 51 45 38 40 41
Dewpt37 36 36 35 36 36 35 33 31 29 27 24 26
Altim29.85 29.85 29.85 29.85 29.84 29.84 29.83 29.84 29.84 29.89 29.95 29.99 30.04
VIS10 10 10 10 10 10 10 10 10 10 10 10 10
CIG-- -- -- -- -- -- -- -- 70 80 40 65 55
CoverCLRCLRCLRCLRCLRCLRFEWSCTBKNBKNOVCOVCBKN
FltCatVFRVFRVFRVFRVFRVFRVFRVFRVFRVFRVFRVFRVFR
WX---------------------SN----
WDir280280260260260250260290290340320320330
WSpd8 9 6 8 9 11 16 19 20 22 21 22 19
WGst-- -- -- -- -- 19 27 30 32 35 43 40 37
Raw hourly METARs
KORD 200851Z 28008KT 10SM CLR 09/03 A2985 RMK AO2 SLP110 T00890028 50001
KORD 200951Z 28009KT 10SM CLR 08/02 A2985 RMK AO2 SLP111 T00830022
KORD 201051Z 26006KT 10SM CLR 08/02 A2985 RMK AO2 SLP110 T00780022
KORD 201151Z 26008KT 10SM CLR 07/02 A2985 RMK AO2 SLP109 70003 T00720017 10100 20072 58002
KORD 201251Z 26009KT 10SM CLR 08/02 A2984 RMK AO2 SLP107 T00780022
KORD 201351Z 25011G19KT 10SM CLR 09/02 A2984 RMK AO2 SLP106 T00890022
KORD 201451Z 26016G27KT 10SM FEW070 11/02 A2983 RMK AO2 PK WND 26027/1428 SLP101 T01060017 58006
KORD 201551Z 29019G30KT 10SM SCT043 SCT070 10/01 A2984 RMK AO2 PK WND 27031/1459 SLP104 T01000006
KORD 201651Z 29020G32KT 10SM SCT044 SCT055 BKN070 11/M01 A2984 RMK AO2 PK WND 29034/1631 SLP106 T01061006
KORD 201751Z 34022G35KT 10SM SCT047 SCT060 BKN080 07/M02 A2989 RMK AO2 PK WND 31038/1710 RAB08E40 SLP125 VCSHRA N P0000 60000 T00721017 10106 20061 53022
KORD 201851Z 32021G43KT 10SM -SN BKN040 OVC049 03/M03 A2995 RMK AO2 PK WND 31053/1837 RAB28E49SNB49 SLP145 P0000 T00331028
KORD 201951Z 32022G40KT 10SM FEW043 BKN065 OVC080 04/M04 A2999 RMK AO2 PK WND 32040/1948 SNE07 SLP160 P0000 T00441044
KORD 202051Z 33019G37KT 10SM FEW038 BKN055 BKN075 BKN250 05/M03 A3004 RMK AO2 PK WND 31042/2037 SLP176 60000 T00501033 51049



Page loaded:  21:45 UTC  |   02:45 PM Pacific  |   03:45 PM Mountain  |   04:45 PM Central  |   05:45 PM Eastern

 

ADVISORIES

FORECASTS

FORECASTS

OBSERVATIONS

USER TOOLS

ABOUT US